createdAt,value
2018-12-13T00:00:17.715Z,98979.34
2018-12-13T00:02:45.783Z,98973.78
2018-12-13T00:05:13.819Z,98974.00
2018-12-13T00:07:41.896Z,98972.03
2018-12-13T00:10:10.061Z,98968.23
2018-12-13T00:12:38.151Z,98970.97
2018-12-13T00:15:06.715Z,98966.44
2018-12-13T00:17:34.752Z,98956.02
2018-12-13T00:20:03.032Z,98963.97
2018-12-13T00:22:31.814Z,98963.02
2018-12-13T00:24:59.874Z,98965.52
2018-12-13T00:27:27.988Z,98962.20
2018-12-13T00:29:56.026Z,98960.66
2018-12-13T00:32:24.110Z,98960.56
2018-12-13T00:34:52.213Z,98961.04
2018-12-13T00:37:20.254Z,98953.98
2018-12-13T00:39:48.370Z,98953.50
2018-12-13T00:42:16.486Z,98958.73
2018-12-13T00:44:44.571Z,98957.52
2018-12-13T00:47:13.043Z,98956.23
2018-12-13T00:49:41.622Z,98950.16
2018-12-13T00:52:09.674Z,98947.69
2018-12-13T00:54:37.747Z,98948.81
2018-12-13T00:57:05.877Z,98942.50
2018-12-13T00:59:33.951Z,98946.94
2018-12-13T01:02:02.016Z,98946.23
2018-12-13T01:04:30.068Z,98940.52
2018-12-13T01:06:58.148Z,98937.92
2018-12-13T01:09:26.207Z,98941.48
2018-12-13T01:11:54.306Z,98940.94
2018-12-13T01:14:22.375Z,98938.87
2018-12-13T01:16:50.445Z,98932.78
2018-12-13T01:19:18.792Z,98933.45
2018-12-13T01:21:46.849Z,98930.05
2018-12-13T01:24:14.906Z,98933.61
2018-12-13T01:26:43.311Z,98931.75
2018-12-13T01:29:11.402Z,98927.57
2018-12-13T01:31:39.443Z,98928.74
2018-12-13T01:34:07.523Z,98923.69
2018-12-13T01:36:35.574Z,98918.61
2018-12-13T01:39:04.795Z,98916.80
2018-12-13T01:41:32.894Z,98911.67
2018-12-13T01:44:00.976Z,98917.64
2018-12-13T01:46:29.035Z,98917.20
2018-12-13T01:48:57.118Z,98918.48
2018-12-13T01:51:25.177Z,98913.25
2018-12-13T01:53:53.234Z,98916.11
2018-12-13T01:56:21.320Z,98913.19
2018-12-13T01:58:49.403Z,98906.17
2018-12-13T02:01:17.578Z,98908.44
2018-12-13T02:03:45.659Z,98898.61
2018-12-13T02:06:13.770Z,98902.77
2018-12-13T02:08:41.882Z,98895.44
2018-12-13T02:11:10.167Z,98899.00
2018-12-13T02:13:38.227Z,98892.20
2018-12-13T02:16:06.514Z,98889.86
2018-12-13T02:18:34.600Z,98890.08
2018-12-13T02:21:02.859Z,98886.89
2018-12-13T02:23:30.911Z,98879.62
2018-12-13T02:25:58.994Z,98876.85
2018-12-13T02:28:28.003Z,98867.09
2018-12-13T02:30:56.072Z,98872.48
2018-12-13T02:33:24.162Z,98876.31
2018-12-13T02:35:52.315Z,98865.12
2018-12-13T02:38:20.377Z,98871.55
2018-12-13T02:40:48.544Z,98870.38
2018-12-13T02:43:16.587Z,98868.36
2018-12-13T02:45:44.667Z,98865.53
2018-12-13T02:48:12.985Z,98865.00
2018-12-13T02:50:41.051Z,98864.36
2018-12-13T02:53:09.327Z,98854.17
2018-12-13T02:55:37.532Z,98862.75
2018-12-13T02:58:06.157Z,98858.48
2018-12-13T03:00:34.894Z,98862.66
2018-12-13T03:03:03.325Z,98863.92
2018-12-13T03:05:31.736Z,98864.89
2018-12-13T03:07:59.822Z,98867.67
2018-12-13T03:10:27.943Z,98861.91
2018-12-13T03:12:56.135Z,98866.13
2018-12-13T03:15:24.171Z,98864.42
2018-12-13T03:17:52.537Z,98856.58
2018-12-13T03:20:20.670Z,98861.16
2018-12-13T03:22:48.845Z,98861.01
2018-12-13T03:25:16.957Z,98857.54
2018-12-13T03:27:45.017Z,98850.42
2018-12-13T03:30:13.448Z,98847.70
2018-12-13T03:32:42.124Z,98840.45
2018-12-13T03:35:10.295Z,98846.11
2018-12-13T03:37:38.320Z,98847.73
2018-12-13T03:40:06.573Z,98844.81
2018-12-13T03:42:34.716Z,98844.39
2018-12-13T03:45:02.802Z,98841.66
2018-12-13T03:47:31.475Z,98835.25
2018-12-13T03:49:59.561Z,98837.53
2018-12-13T03:52:27.628Z,98828.48
2018-12-13T03:54:55.798Z,98826.52
2018-12-13T03:57:23.896Z,98826.50
2018-12-13T03:59:51.945Z,98828.05
2018-12-13T04:02:20.026Z,98814.23
2018-12-13T04:04:48.102Z,98810.13
2018-12-13T04:07:16.187Z,98805.70
2018-12-13T04:09:44.274Z,98808.62
2018-12-13T04:12:12.324Z,98803.45
2018-12-13T04:14:40.407Z,98800.72
2018-12-13T04:17:08.879Z,98799.72
2018-12-13T04:19:36.956Z,98798.48
2018-12-13T04:22:05.121Z,98799.71
2018-12-13T04:24:33.261Z,98795.77
2018-12-13T04:27:01.436Z,98798.70
2018-12-13T04:29:29.517Z,98794.05
2018-12-13T04:31:57.689Z,98792.23
2018-12-13T04:34:25.865Z,98789.37
2018-12-13T04:36:53.939Z,98793.00
2018-12-13T04:39:22.026Z,98791.02
2018-12-13T04:41:50.101Z,98786.91
2018-12-13T04:44:18.163Z,98790.25
2018-12-13T04:46:46.243Z,98785.89
2018-12-13T04:49:14.419Z,98778.16
2018-12-13T04:51:42.491Z,98775.02
2018-12-13T04:54:10.596Z,98779.98
2018-12-13T04:56:38.723Z,98774.23
2018-12-13T04:59:06.890Z,98771.08
2018-12-13T05:01:35.380Z,98774.74
2018-12-13T05:04:03.459Z,98772.48
2018-12-13T05:06:31.518Z,98772.29
2018-12-13T05:08:59.641Z,98768.02
2018-12-13T05:11:27.718Z,98768.21
2018-12-13T05:13:55.751Z,98764.38
2018-12-13T05:16:23.812Z,98762.14
2018-12-13T05:18:51.987Z,98761.80
2018-12-13T05:21:20.067Z,98760.84
2018-12-13T05:23:48.172Z,98760.35
2018-12-13T05:26:16.283Z,98765.19
2018-12-13T05:28:44.459Z,98764.97
2018-12-13T05:31:12.819Z,98766.23
2018-12-13T05:33:41.891Z,98767.02
2018-12-13T05:36:10.016Z,98765.42
2018-12-13T05:38:38.499Z,98756.42
2018-12-13T05:41:06.575Z,98759.19
2018-12-13T05:43:34.655Z,98757.98
2018-12-13T05:46:02.907Z,98748.92
2018-12-13T05:48:31.010Z,98751.62
2018-12-13T05:50:59.271Z,98747.88
2018-12-13T05:53:27.447Z,98748.66
2018-12-13T05:55:55.507Z,98749.46
2018-12-13T05:58:24.171Z,98746.74
2018-12-13T06:00:52.259Z,98750.85
2018-12-13T06:03:20.859Z,98754.16
2018-12-13T06:05:49.023Z,98757.67
2018-12-13T06:08:17.150Z,98755.06
2018-12-13T06:10:45.186Z,98755.37
2018-12-13T06:13:13.646Z,98752.64
2018-12-13T06:15:41.727Z,98752.73
2018-12-13T06:18:09.818Z,98758.73
2018-12-13T06:20:37.911Z,98752.97
2018-12-13T06:23:06.039Z,98754.51
2018-12-13T06:25:34.163Z,98750.37
2018-12-13T06:28:02.367Z,98749.58
2018-12-13T06:30:30.843Z,98756.01
2018-12-13T06:32:58.947Z,98750.83
2018-12-13T06:35:27.016Z,98750.17
2018-12-13T06:38:01.034Z,98747.41
2018-12-13T06:40:25.189Z,98746.25
2018-12-13T06:42:53.271Z,98742.19
2018-12-13T06:45:21.327Z,98746.44
2018-12-13T06:47:49.435Z,98747.66
2018-12-13T06:50:17.495Z,98746.54
2018-12-13T06:52:45.591Z,98746.95
2018-12-13T06:55:13.686Z,98745.06
2018-12-13T06:57:41.782Z,98746.48
2018-12-13T07:00:10.291Z,98750.64
2018-12-13T07:02:38.331Z,98749.67
2018-12-13T07:05:06.444Z,98752.09
2018-12-13T07:07:34.560Z,98754.64
2018-12-13T07:10:02.654Z,98756.42
2018-12-13T07:12:30.723Z,98760.66
2018-12-13T07:14:58.823Z,98763.27
2018-12-13T07:17:26.941Z,98766.47
2018-12-13T07:19:55.011Z,98761.75
2018-12-13T07:22:23.438Z,98758.00
2018-12-13T07:24:51.564Z,98760.70
2018-12-13T07:27:19.654Z,98758.63
2018-12-13T07:29:47.977Z,98751.98
2018-12-13T07:32:16.147Z,98748.91
2018-12-13T07:34:44.210Z,98744.50
2018-12-13T07:37:12.334Z,98741.41
2018-12-13T07:39:40.362Z,98741.25
2018-12-13T07:42:08.504Z,98734.65
2018-12-13T07:44:36.570Z,98738.05
2018-12-13T07:47:04.690Z,98735.16
2018-12-13T07:49:32.743Z,98735.11
2018-12-13T07:52:00.923Z,98734.17
2018-12-13T07:54:29.011Z,98732.12
2018-12-13T07:56:57.107Z,98732.30
2018-12-13T07:59:25.235Z,98740.76
2018-12-13T08:01:53.410Z,98736.66
2018-12-13T08:04:21.526Z,98736.23
2018-12-13T08:06:49.739Z,98743.86
2018-12-13T08:09:17.831Z,98737.83
2018-12-13T08:11:46.006Z,98741.41
2018-12-13T08:14:14.066Z,98745.63
2018-12-13T08:16:42.229Z,98746.85
2018-12-13T08:19:10.319Z,98749.36
2018-12-13T08:21:38.407Z,98759.43
2018-12-13T08:24:06.659Z,98759.96
2018-12-13T08:26:34.782Z,98754.52
2018-12-13T08:29:02.855Z,98758.47
2018-12-13T08:31:31.026Z,98747.53
2018-12-13T08:33:59.198Z,98741.91
2018-12-13T08:36:27.956Z,98744.34
2018-12-13T08:38:56.060Z,98740.91
2018-12-13T08:41:24.388Z,98743.24
2018-12-13T08:43:52.518Z,98739.22
2018-12-13T08:46:20.581Z,98729.33
2018-12-13T08:48:48.647Z,98731.33
2018-12-13T08:51:16.704Z,98725.80
2018-12-13T08:53:44.753Z,98719.75
2018-12-13T08:56:12.824Z,98718.48
2018-12-13T08:58:40.938Z,98717.05
2018-12-13T09:01:09.113Z,98730.39
2018-12-13T09:03:37.240Z,98734.48
2018-12-13T09:06:05.319Z,98743.73
2018-12-13T09:08:33.796Z,98741.78
2018-12-13T09:11:02.072Z,98734.16
2018-12-13T09:13:30.335Z,98731.30
2018-12-13T09:15:58.628Z,98729.02
2018-12-13T09:18:26.736Z,98725.14
2018-12-13T09:20:54.754Z,98724.19
2018-12-13T09:23:23.242Z,98722.95
2018-12-13T09:25:51.296Z,98724.44
2018-12-13T09:28:19.491Z,98725.14
2018-12-13T09:30:47.722Z,98724.89
2018-12-13T09:33:15.823Z,98724.92
2018-12-13T09:35:43.899Z,98724.03
2018-12-13T09:38:11.969Z,98728.36
2018-12-13T09:40:40.056Z,98726.21
2018-12-13T09:43:08.134Z,98722.42
2018-12-13T09:45:36.186Z,98720.80
2018-12-13T09:48:04.268Z,98726.00
2018-12-13T09:50:32.441Z,98727.00
2018-12-13T09:53:00.522Z,98718.88
2018-12-13T09:55:28.674Z,98725.57
2018-12-13T09:57:56.767Z,98714.16
2018-12-13T10:00:24.807Z,98709.27
2018-12-13T10:02:52.867Z,98709.78
2018-12-13T10:05:20.988Z,98699.70
2018-12-13T10:07:49.058Z,98697.20
2018-12-13T10:10:17.131Z,98701.72
2018-12-13T10:12:45.232Z,98701.46
2018-12-13T10:15:13.269Z,98691.09
2018-12-13T10:17:41.431Z,98696.63
2018-12-13T10:20:09.881Z,98688.00
2018-12-13T10:22:38.024Z,98671.45
2018-12-13T10:25:06.204Z,98666.22
2018-12-13T10:27:34.330Z,98672.52
2018-12-13T10:30:02.411Z,98664.83
2018-12-13T10:32:30.468Z,98663.17
2018-12-13T10:34:58.543Z,98661.70
2018-12-13T10:37:26.629Z,98662.05
2018-12-13T10:39:54.767Z,98662.14
2018-12-13T10:42:22.869Z,98665.78
2018-12-13T10:44:50.942Z,98656.18
2018-12-13T10:47:19.003Z,98656.43
2018-12-13T10:49:47.094Z,98661.55
2018-12-13T10:52:15.168Z,98639.81
2018-12-13T10:54:43.619Z,98660.33
2018-12-13T10:57:11.895Z,98651.62
2018-12-13T10:59:39.975Z,98637.88
2018-12-13T11:02:10.039Z,98652.94
2018-12-13T11:04:38.087Z,98660.75
2018-12-13T11:07:06.435Z,98663.31
2018-12-13T11:09:34.505Z,98655.18
2018-12-13T11:12:02.729Z,98652.14
2018-12-13T11:14:30.883Z,98648.99
2018-12-13T11:16:58.951Z,98649.08
2018-12-13T11:19:26.994Z,98641.20
2018-12-13T11:21:55.072Z,98645.59
2018-12-13T11:24:23.256Z,98644.89
2018-12-13T11:26:51.391Z,98642.22
2018-12-13T11:29:25.097Z,98639.80
2018-12-13T11:31:53.160Z,98640.66
2018-12-13T11:34:21.316Z,98641.99
2018-12-13T11:36:49.413Z,98638.55
2018-12-13T11:39:17.495Z,98647.75
2018-12-13T11:41:45.564Z,98632.64
2018-12-13T11:44:13.622Z,98646.41
2018-12-13T11:46:41.709Z,98638.44
2018-12-13T11:49:12.272Z,98635.37
2018-12-13T11:51:39.944Z,98643.52
2018-12-13T11:54:13.642Z,98632.58
2018-12-13T11:56:41.943Z,98634.40
2018-12-13T11:59:10.016Z,98637.15
2018-12-13T12:01:38.035Z,98631.42
2018-12-13T12:04:06.135Z,98629.94
2018-12-13T12:06:34.211Z,98619.98
2018-12-13T12:09:02.338Z,98622.53
2018-12-13T12:11:30.635Z,98623.94
2018-12-13T12:13:58.711Z,98612.84
2018-12-13T12:16:26.757Z,98607.92
2018-12-13T12:18:54.844Z,98599.45
2018-12-13T12:21:22.886Z,98609.02
2018-12-13T12:23:50.975Z,98617.62
2018-12-13T12:26:19.030Z,98606.23
2018-12-13T12:28:47.181Z,98609.28
2018-12-13T12:31:15.252Z,98610.69
2018-12-13T12:33:43.575Z,98606.52
2018-12-13T12:36:11.646Z,98605.44
2018-12-13T12:38:39.770Z,98599.91
2018-12-13T12:41:08.557Z,98599.91
2018-12-13T12:43:36.621Z,98595.86
2018-12-13T12:46:04.654Z,98595.00
2018-12-13T12:48:32.766Z,98598.85
2018-12-13T12:51:00.895Z,98591.16
2018-12-13T12:53:28.962Z,98602.78
2018-12-13T12:55:57.060Z,98600.32
2018-12-13T12:58:25.206Z,98586.84
2018-12-13T13:00:53.275Z,98589.58
2018-12-13T13:03:21.351Z,98586.81
2018-12-13T13:05:49.540Z,98581.50
2018-12-13T13:08:17.615Z,98581.40
2018-12-13T13:10:45.684Z,98591.22
2018-12-13T13:13:13.845Z,98591.17
2018-12-13T13:15:41.927Z,98586.94
2018-12-13T13:18:09.975Z,98583.72
2018-12-13T13:20:38.068Z,98589.23
2018-12-13T13:23:06.162Z,98579.40
2018-12-13T13:25:34.205Z,98573.74
2018-12-13T13:28:02.302Z,98580.97
2018-12-13T13:30:30.347Z,98574.88
2018-12-13T13:32:58.485Z,98578.59
2018-12-13T13:35:26.712Z,98578.88
2018-12-13T13:37:54.872Z,98580.48
2018-12-13T13:40:22.950Z,98577.25
2018-12-13T13:42:51.028Z,98574.94
2018-12-13T13:45:19.482Z,98575.86
2018-12-13T13:47:47.571Z,98572.20
2018-12-13T13:50:15.642Z,98580.31
2018-12-13T13:52:43.760Z,98570.20
2018-12-13T13:55:11.826Z,98578.08
2018-12-13T13:57:39.850Z,98573.53
2018-12-13T14:00:10.012Z,98570.80
2018-12-13T14:02:38.459Z,98569.36
2018-12-13T14:05:06.626Z,98553.99
2018-12-13T14:07:34.811Z,98575.00
2018-12-13T14:10:03.007Z,98575.36
2018-12-13T14:12:31.048Z,98575.64
2018-12-13T14:14:59.107Z,98576.38
2018-12-13T14:17:27.220Z,98587.03
2018-12-13T14:19:55.306Z,98584.88
2018-12-13T14:22:23.382Z,98579.27
2018-12-13T14:24:51.487Z,98576.03
2018-12-13T14:27:19.563Z,98580.69
2018-12-13T14:29:47.611Z,98569.26
2018-12-13T14:32:15.718Z,98580.28
2018-12-13T14:34:43.795Z,98577.03
2018-12-13T14:37:11.913Z,98584.51
2018-12-13T14:39:44.331Z,98583.07
2018-12-13T14:42:10.051Z,98583.63
2018-12-13T14:44:38.154Z,98583.52
2018-12-13T14:47:06.223Z,98586.77
2018-12-13T14:49:34.370Z,98580.84
2018-12-13T14:52:02.655Z,98589.13
2018-12-13T14:54:30.716Z,98591.30
2018-12-13T14:56:58.795Z,98586.09
2018-12-13T14:59:26.879Z,98592.28
2018-12-13T15:01:55.020Z,98586.25
2018-12-13T15:04:23.079Z,98589.51
2018-12-13T15:06:51.187Z,98591.18
2018-12-13T15:09:19.339Z,98588.39
2018-12-13T15:11:48.111Z,98590.70
2018-12-13T15:14:16.599Z,98590.72
2018-12-13T15:16:44.702Z,98596.28
2018-12-13T15:19:12.775Z,98591.72
2018-12-13T15:21:40.880Z,98591.87
2018-12-13T15:24:08.919Z,98594.86
2018-12-13T15:26:36.979Z,98595.20
2018-12-13T15:29:05.209Z,98592.08
2018-12-13T15:31:33.299Z,98591.50
2018-12-13T15:34:01.372Z,98592.34
2018-12-13T15:36:29.479Z,98595.88
2018-12-13T15:38:57.561Z,98600.38
2018-12-13T15:41:25.624Z,98601.12
2018-12-13T15:43:53.753Z,98598.73
2018-12-13T15:46:21.874Z,98599.47
2018-12-13T15:48:49.933Z,98598.22
2018-12-13T15:51:18.048Z,98602.80
2018-12-13T15:53:46.722Z,98608.44
2018-12-13T15:56:14.977Z,98605.19
2018-12-13T15:58:43.063Z,98604.22
2018-12-13T16:01:11.102Z,98601.86
2018-12-13T16:03:39.183Z,98607.89
2018-12-13T16:06:07.235Z,98605.27
2018-12-13T16:08:35.291Z,98605.52
2018-12-13T16:11:03.466Z,98596.42
2018-12-13T16:13:31.843Z,98602.48
2018-12-13T16:16:00.009Z,98604.42
2018-12-13T16:18:28.091Z,98595.71
2018-12-13T16:20:56.275Z,98602.09
2018-12-13T16:23:24.343Z,98605.56
2018-12-13T16:25:52.419Z,98609.78
2018-12-13T16:28:20.507Z,98608.03
2018-12-13T16:30:48.556Z,98613.20
2018-12-13T16:33:16.613Z,98604.50
2018-12-13T16:35:44.930Z,98608.68
2018-12-13T16:38:12.999Z,98611.21
2018-12-13T16:40:41.050Z,98613.94
2018-12-13T16:43:09.552Z,98602.59
2018-12-13T16:45:37.627Z,98609.81
2018-12-13T16:48:05.696Z,98602.58
2018-12-13T16:50:34.175Z,98604.83
2018-12-13T16:53:02.246Z,98610.47
2018-12-13T16:55:30.433Z,98607.41
2018-12-13T16:57:58.499Z,98600.95
2018-12-13T17:00:26.652Z,98600.59
2018-12-13T17:02:54.692Z,98604.20
2018-12-13T17:05:22.759Z,98611.80
2018-12-13T17:07:50.851Z,98602.63
2018-12-13T17:10:18.903Z,98605.59
2018-12-13T17:12:47.486Z,98599.67
2018-12-13T17:15:15.611Z,98608.31
2018-12-13T17:17:43.891Z,98598.56
2018-12-13T17:20:12.066Z,98603.58
2018-12-13T17:22:40.119Z,98595.02
2018-12-13T17:25:08.174Z,98598.75
2018-12-13T17:27:36.560Z,98603.44
2018-12-13T17:30:08.335Z,98610.12
2018-12-13T17:32:36.399Z,98604.92
2018-12-13T17:35:05.548Z,98604.03
2018-12-13T17:37:33.703Z,98605.38
2018-12-13T17:40:01.876Z,98605.65
2018-12-13T17:42:29.934Z,98599.48
2018-12-13T17:44:57.990Z,98601.52
2018-12-13T17:47:26.067Z,98599.70
2018-12-13T17:49:54.183Z,98601.85
2018-12-13T17:52:22.219Z,98597.06
2018-12-13T17:54:50.294Z,98597.72
2018-12-13T17:57:18.342Z,98599.44
2018-12-13T17:59:46.414Z,98595.49
2018-12-13T18:02:14.500Z,98607.67
2018-12-13T18:04:42.543Z,98611.48
2018-12-13T18:07:10.643Z,98602.06
2018-12-13T18:09:38.699Z,98607.47
2018-12-13T18:12:06.758Z,98608.63
2018-12-13T18:14:34.930Z,98603.91
2018-12-13T18:17:02.983Z,98606.66
2018-12-13T18:19:31.211Z,98614.72
2018-12-13T18:21:59.730Z,98606.13
2018-12-13T18:24:28.055Z,98608.47
2018-12-13T18:26:56.122Z,98614.99
2018-12-13T18:29:24.207Z,98608.84
2018-12-13T18:31:52.270Z,98607.58
2018-12-13T18:34:20.343Z,98618.45
2018-12-13T18:36:48.424Z,98614.92
2018-12-13T18:39:16.695Z,98608.83
2018-12-13T18:41:44.760Z,98612.59
2018-12-13T18:44:13.048Z,98615.98
2018-12-13T18:46:41.314Z,98617.28
2018-12-13T18:49:09.395Z,98613.66
2018-12-13T18:51:37.453Z,98612.95
2018-12-13T18:54:05.543Z,98611.44
2018-12-13T18:56:33.602Z,98603.34
2018-12-13T18:59:01.739Z,98608.69
2018-12-13T19:01:29.855Z,98610.98
2018-12-13T19:03:57.895Z,98608.75
2018-12-13T19:06:26.251Z,98608.27
2018-12-13T19:08:54.335Z,98607.19
2018-12-13T19:11:22.414Z,98601.44
2018-12-13T19:13:50.512Z,98607.11
2018-12-13T19:16:18.563Z,98607.89
2018-12-13T19:18:46.652Z,98606.70
2018-12-13T19:21:15.138Z,98601.05
2018-12-13T19:23:43.283Z,98608.95
2018-12-13T19:26:11.551Z,98605.86
2018-12-13T19:28:39.755Z,98604.15
2018-12-13T19:31:07.931Z,98601.42
2018-12-13T19:33:35.978Z,98606.14
2018-12-13T19:36:04.231Z,98601.48
2018-12-13T19:38:32.294Z,98580.05
2018-12-13T19:41:00.393Z,98603.30
2018-12-13T19:43:28.766Z,98604.09
2018-12-13T19:45:56.878Z,98605.86
2018-12-13T19:48:25.214Z,98612.13
2018-12-13T19:50:53.683Z,98605.01
2018-12-13T19:53:22.047Z,98610.64
2018-12-13T19:55:50.120Z,98617.34
2018-12-13T19:58:18.219Z,98611.19
2018-12-13T20:00:46.291Z,98610.73
2018-12-13T20:03:14.394Z,98617.17
2018-12-13T20:05:42.494Z,98619.83
2018-12-13T20:08:10.530Z,98610.80
2018-12-13T20:10:38.586Z,98621.58
2018-12-13T20:13:06.658Z,98625.66
2018-12-13T20:15:34.742Z,98632.44
2018-12-13T20:18:02.802Z,98628.05
2018-12-13T20:20:30.915Z,98624.71
2018-12-13T20:22:58.990Z,98627.38
2018-12-13T20:25:27.137Z,98632.13
2018-12-13T20:27:55.301Z,98642.20
2018-12-13T20:30:23.383Z,98643.78
2018-12-13T20:32:51.463Z,98643.73
2018-12-13T20:35:19.943Z,98639.56
2018-12-13T20:37:48.121Z,98647.69
2018-12-13T20:40:16.261Z,98656.31
2018-12-13T20:42:44.335Z,98663.84
2018-12-13T20:45:12.396Z,98663.22
2018-12-13T20:47:40.587Z,98652.59
2018-12-13T20:50:09.071Z,98674.19
2018-12-13T20:52:37.994Z,98669.33
2018-12-13T20:55:06.825Z,98667.34
2018-12-13T20:57:35.039Z,98660.39
2018-12-13T21:00:07.055Z,98663.78
2018-12-13T21:02:36.012Z,98671.24
2018-12-13T21:05:04.929Z,98666.48
2018-12-13T21:07:33.663Z,98671.77
2018-12-13T21:10:02.532Z,98662.42
2018-12-13T21:12:30.590Z,98668.29
2018-12-13T21:14:58.657Z,98661.85
2018-12-13T21:17:26.879Z,98648.36
2018-12-13T21:19:54.955Z,98657.97
2018-12-13T21:22:23.959Z,98654.59
2018-12-13T21:24:52.235Z,98649.07
2018-12-13T21:27:20.282Z,98646.08
2018-12-13T21:29:48.367Z,98644.86
2018-12-13T21:32:16.502Z,98648.52
2018-12-13T21:34:44.710Z,98644.53
2018-12-13T21:37:12.783Z,98643.07
2018-12-13T21:39:40.875Z,98643.12
2018-12-13T21:42:08.962Z,98643.28
2018-12-13T21:44:37.023Z,98644.54
2018-12-13T21:47:05.113Z,98647.92
2018-12-13T21:49:33.218Z,98652.50
2018-12-13T21:52:01.290Z,98654.02
2018-12-13T21:54:29.375Z,98656.31
2018-12-13T21:56:57.753Z,98653.70
2018-12-13T21:59:25.827Z,98653.92
2018-12-13T22:01:53.945Z,98660.50
2018-12-13T22:04:22.017Z,98664.12
2018-12-13T22:06:50.053Z,98664.80
2018-12-13T22:09:18.231Z,98667.78
2018-12-13T22:11:46.294Z,98661.25
2018-12-13T22:14:14.359Z,98669.30
2018-12-13T22:16:42.459Z,98663.09
2018-12-13T22:19:10.530Z,98661.77
2018-12-13T22:21:38.603Z,98662.41
2018-12-13T22:24:06.691Z,98666.22
2018-12-13T22:26:34.851Z,98668.36
2018-12-13T22:29:03.310Z,98669.34
2018-12-13T22:31:31.396Z,98676.82
2018-12-13T22:33:59.442Z,98670.85
2018-12-13T22:36:27.627Z,98675.89
2018-12-13T22:38:55.803Z,98675.25
2018-12-13T22:41:26.423Z,98681.36
2018-12-13T22:43:53.902Z,98685.84
2018-12-13T22:46:22.006Z,98688.87
2018-12-13T22:48:50.102Z,98686.53
2018-12-13T22:51:18.841Z,98682.86
2018-12-13T22:53:46.940Z,98681.84
2018-12-13T22:56:15.396Z,98683.23
2018-12-13T22:58:43.452Z,98683.17
2018-12-13T23:01:11.620Z,98682.77
2018-12-13T23:03:39.679Z,98681.70
2018-12-13T23:06:07.723Z,98678.66
2018-12-13T23:08:35.932Z,98681.55
2018-12-13T23:11:04.255Z,98680.81
2018-12-13T23:13:32.351Z,98678.23
2018-12-13T23:16:00.525Z,98669.80
2018-12-13T23:18:28.585Z,98676.74
2018-12-13T23:20:56.696Z,98677.64
2018-12-13T23:23:24.971Z,98673.19
2018-12-13T23:25:53.043Z,98674.15
2018-12-13T23:28:21.390Z,98677.13
2018-12-13T23:30:49.494Z,98671.06
2018-12-13T23:33:17.770Z,98666.87
2018-12-13T23:35:45.843Z,98676.68
2018-12-13T23:38:14.083Z,98677.08
2018-12-13T23:40:42.171Z,98682.58
2018-12-13T23:43:10.311Z,98679.86
2018-12-13T23:45:39.391Z,98686.50
2018-12-13T23:48:07.435Z,98684.75
2018-12-13T23:50:35.566Z,98679.67
2018-12-13T23:53:03.679Z,98683.22
2018-12-13T23:55:31.727Z,98678.41
2018-12-13T23:57:59.819Z,98678.83
